Skip Navigation Links
NOAA logo - Click to go to the NOAA homepage
NOAA's National Weather Service
Alaska Aviation Weather Unit
  NWS logo - Click to go to the NWS homepage
Left Navbar Graphic     22 AKDT = 06 GMT

   
NOAA is celebrating 200 years of science, service, and stewardship. Visit the NOAA 200th celebration Web site to learn more.
USA.gov is the U.S. Government's official Web portal to all Federal, state and local government Web resources and services.
Facebook
NWS on Facebook

Important Change Regarding the AAWU Web Presence

 

Over the last several months, the AAWU has been working to navigate its webpages to a nationally supported server. Security, as well as other needs, have necessitated the change.  In the process, we have made an effort to enhance the functionality of our website, as well as some of our products. As of June 20, 2017, aawu.arh.noaa.gov will be discontinued. The new AAWU web address is weather.gov/aawu. It is now live and will run in-parallel with the old site until it is discontinued. Please send any feedback or questions regarding the new webpages to nws.ar.aawu.webauthors@noaa.gov.  Thank you for your patience during this time of transition.
AAWU Home :: Display TAF Add Bookmark
SPECI PAWD 280005Z AUTO 17004KT 10SM -RA BKN028 OVC038 06/04 A3011
 RMK AO2 P0000 T00560039 TSNO=

SPECI PAWD 280026Z AUTO 19005KT 10SM -RA BKN030 OVC036 06/04 A3011 RMK
     AO2 P0000 T00560044 TSNO=

METAR PAWD 280053Z AUTO 17005KT 9SM -RA BKN030 OVC037 06/04 A3010 RMK
     AO2 SLP193 P0002 T00560039 TSNO=

METAR PAWD 280153Z AUTO 18004KT 8SM -RA BKN032 OVC040 06/04 A3009 RMK
     AO2 SLP190 P0002 T00560044 TSNO=

SPECI PAWD 280216Z AUTO 19005KT 8SM -RA FEW011 BKN025 OVC029 06/04 A3009
     RMK AO2 P0002 T00560044 TSNO=

SPECI PAWD 280229Z AUTO 18004KT 9SM -RA SCT024 OVC030 06/04 A3009 RMK
     AO2 P0002 T00560044 TSNO=

METAR PAWD 280253Z AUTO 16005KT 9SM -RA BKN030 OVC037 06/04 A3008 RMK
     AO2 SLP186 P0004 60008 T00560039 58010 TSNO=

SPECI PAWD 280303Z AUTO 18005KT 8SM -RA BKN029 OVC036 05/04 A3008 RMK
     AO2 P0000 T00500039 TSNO=

METAR PAWD 280353Z AUTO 19007KT 7SM -RA OVC029 05/04 A3007 RMK AO2
     SLP183 P0005 T00500044 TSNO=

SPECI PAWD 280429Z AUTO 19007KT 7SM -RA OVC026 06/04 A3007 RMK AO2 P0003
     T00560044 TSNO=

SPECI PAWD 280449Z AUTO 17007KT 8SM -RA SCT024 OVC029 05/04 A3007
 RMK AO2 P0004 TSNO=

METAR PAWD 280453Z AUTO 18007KT 8SM -RA FEW024 OVC029 05/04 A3007
 RMK AO2 SLP183 P0005 T00500039 TSNO=

SPECI PAWD 280533Z AUTO 17007KT 7SM -RA OVC025 05/04 A3008 RMK AO2 P0003
     T00500039 TSNO=

METAR PAWD 280553Z AUTO 18006KT 7SM -RA OVC026 04/04 A3008 RMK AO2
     SLP184 P0004 60022 T00440039 10061 20044 53001 TSNO=


NOAA's National Weather Service
Alaska Aviation Weather Unit
6930 Sand Lake Road
Anchorage, AK 99502-1845
Disclaimer
Credits
Glossary
Privacy Policy
About Us
Career Opportunities
Contact AAWU Internet Services Site last modified: April, 17th 2012